Hovedside
METAR-TAF:

METAR-TAF

Lufthavner :

Gällivare, Sverige

Gällivare lufthavn

breddegrad: 67-09N, lengdegrad: 020-39E, høyde over havet: 359 m

Gjeldene værobservasjon

Denne rapporten ble laget for 15 minutter siden, klokken 14:20 UTC
Vind 4 kt fra Øst-sørøst
Temperatur -11°C
Luftfuktighet 92%
Trykk 1019 hPa
Sikt: 1500 m
Overskyet i en høyde av 300 ft
snø

METAR: ESNG 221420Z 11004KT 1500 SN OVC003 M11/M12 Q1019

Tid: 15:35 (14:35 UTC)

Varsel

Denne rapporten ble laget for 1 time og 35 minutter siden, klokken 13:00 UTC
Varsel gyldig fra 22. klokken 14 UTC til 22. klokken 21 UTC
Vind 6 kt fra Øst-sørøst
Sikt: 5000 m
Overskyet i en høyde av 300 ft
lett snø
Midlertidig
fra 22. klokken 14 UTC til 22. klokken 21 UTC
Sikt: 2000 m
i en høyde av 1200 ft
snø

TAF: ESNG 221300Z 2214/2221 11006KT 5000 -SN OVC003 TEMPO 2214/2221 2000 SN VV012

Værobservasjoner og værvarsel for over 4000 flyplasser (METAR- og TAF-rapporter).

Tilgjengelige stasjoner er representert av de røde og gule prikkene på kartet.

Hold musepekeren over prikken for å se navnet på stasjonen.

Klikk så for å se værobservasjoner og -varsler.

For å forandre kartet kan du klikke på den grønne knappen med svart kryss for å zoome inn, på den grønne knappen med strek for å zoome ut, eller på de grønne pilene for å se tilstøtende kart.


METAR-TAF: